PADU

Details ICAO PADU (DUT)
Name UNALASKA
Region USA (Alaska)
Timezone America/Adak (UTC-10.0)
Plans Departing 57
Arriving 64
Stats Elevation 22 ft / 7 m (AMSL)
Location 53.899070° -166.545064°
Runways 1
Magnetic Variation 9.141° E
Sunrise 2017-11-17 18:39:35 UTC / 2017-11-17 08:39:35 Local
Sunset 2017-11-18 03:05:48 UTC / 2017-11-17 17:05:48 Local
Advertisement - Login to hide

Runways

ID Width Length Bearing (true) Bearing (mag) Surface Threshold Offset Overrun Length
12 100 ft / 30 m 3,895 ft / 1,187 m 135.64° 126.50° Asphalt 100 ft / 30 m 0 ft / 0 m
30 100 ft / 30 m 3,895 ft / 1,187 m 315.65° 306.51° Asphalt 101 ft / 31 m 0 ft / 0 m

Map

Weather


0- 5 10 15 20 25 30 35+ Temperature / ° C

Clouds and Precipitation
Forecast for 2017-11-18 12:00 UTC. Updated 43 minutes ago

Ground ~20,000 ft ~40,000 ft Winds

METAR

PADU 180956Z AUTO VRB03KT 10SM FEW018 06/03 A3036 RMK AO2 SLP284 T00610028

TAF

PADU 180536Z 1806/1906 VRB05KT P6SM FEW015 SCT025 BKN100 TEMPO 1806/1809 SCT015 BKN025 FM180900 24006KT P6SM VCSH SCT025 BKN035 BKN050 FM181500 24008KT P6SM -SHRA SCT015 BKN025 FM182000 24008G15KT 6SM -SHRA BR SCT007 BKN015 OVC025 FM190200 27015G25KT 3SM -SHRA BR SCT003 BKN007 OVC015

Frequencies

Recorded 125.80 MHz AWOS 3
Unicom 122.60 MHz CTAF
Warning: Do not use this data for real-world aviation or navigation. No guarantee of current accuracy is given.